Time;durP1;ratioP1;P1;durP2;ratioP2;P2;SDS_P1;SDS_P2;PMS_P1;PMS_P2;Temp;Humidity;BMP_temperature;BMP_pressure;BME280_temperature;BME280_humidity;BME280_pressure;Samples;Min_cycle;Max_cycle;Signal;HPM_P1;HPM_P2
2021/06/25 00:01:20;;;;;;;32.90;24.23;;;16.50;99.90;;;;;;4994201;28;20199;-78
2021/06/25 00:03:46;;;;;;;29.87;24.07;;;16.60;99.90;;;;;;4993697;28;20211;-77
2021/06/25 00:06:11;;;;;;;25.07;21.70;;;16.60;99.90;;;;;;4994106;28;20215;-76
2021/06/25 00:08:37;;;;;;;27.93;21.80;;;16.50;99.90;;;;;;4992685;28;20215;-78
2021/06/25 00:11:03;;;;;;;25.70;22.50;;;16.50;99.90;;;;;;4994093;28;20209;-77
2021/06/25 00:13:28;;;;;;;30.27;22.60;;;16.40;99.90;;;;;;4993554;28;20679;-77
2021/06/25 00:15:54;;;;;;;29.43;23.63;;;16.40;99.90;;;;;;4994143;28;20171;-76
2021/06/25 00:18:20;;;;;;;35.13;24.20;;;16.30;99.90;;;;;;4993876;28;20266;-77
2021/06/25 00:20:45;;;;;;;29.47;22.43;;;16.30;99.90;;;;;;4992603;28;20656;-77
2021/06/25 00:23:11;;;;;;;27.70;22.37;;;16.30;99.90;;;;;;4993715;28;20187;-77
2021/06/25 00:25:37;;;;;;;24.60;21.90;;;16.30;99.90;;;;;;4994365;28;20243;-77
2021/06/25 00:28:03;;;;;;;26.20;22.10;;;16.20;99.90;;;;;;4993759;28;20545;-78
2021/06/25 00:30:29;;;;;;;30.80;24.20;;;16.20;99.90;;;;;;4993670;28;20251;-78
2021/06/25 00:32:54;;;;;;;31.17;22.00;;;16.10;99.90;;;;;;4993359;28;20498;-76
2021/06/25 00:35:20;;;;;;;29.33;24.40;;;16.10;99.90;;;;;;4992571;28;20460;-76
2021/06/25 00:37:47;;;;;;;31.87;22.90;;;16.00;99.90;;;;;;4993954;28;20176;-77
2021/06/25 00:40:14;;;;;;;26.03;22.97;;;16.00;99.90;;;;;;4993788;28;20543;-77
2021/06/25 00:42:40;;;;;;;26.20;22.30;;;15.90;99.90;;;;;;4993602;28;20421;-78
2021/06/25 00:45:19;;;;;;;30.10;23.00;;;15.80;99.90;;;;;;4993354;28;20474;-77
2021/06/25 00:47:47;;;;;;;34.43;23.70;;;15.70;99.90;;;;;;4993685;28;20211;-77
2021/06/25 00:50:17;;;;;;;32.57;24.13;;;15.70;99.90;;;;;;4993746;28;20393;-77
2021/06/25 00:52:43;;;;;;;27.73;21.90;;;15.60;99.90;;;;;;4993232;28;20461;-78
2021/06/25 00:55:10;;;;;;;30.03;23.33;;;15.60;99.90;;;;;;4993480;28;20437;-76
2021/06/25 00:57:36;;;;;;;21.67;18.33;;;15.50;99.90;;;;;;4993617;28;20415;-76
2021/06/25 01:00:04;;;;;;;27.80;24.33;;;15.50;99.90;;;;;;4992859;28;20449;-77
2021/06/25 01:02:30;;;;;;;31.17;24.47;;;15.40;99.90;;;;;;4996018;28;20517;-76
2021/06/25 01:04:55;;;;;;;31.13;22.13;;;15.20;99.90;;;;;;4995386;28;20533;-78
2021/06/25 01:07:21;;;;;;;27.47;21.13;;;15.20;99.90;;;;;;4997403;28;20242;-77
2021/06/25 01:09:47;;;;;;;35.80;23.10;;;15.10;99.90;;;;;;4997493;28;20657;-77
2021/06/25 01:12:13;;;;;;;30.40;22.33;;;15.10;99.90;;;;;;4997251;28;20226;-76
2021/06/25 01:14:39;;;;;;;29.17;23.30;;;15.00;99.90;;;;;;4996737;28;20211;-77
2021/06/25 01:17:08;;;;;;;29.07;23.33;;;14.90;99.90;;;;;;4996965;28;20869;-77
2021/06/25 01:19:34;;;;;;;31.33;21.90;;;14.90;99.90;;;;;;4997111;28;20462;-78
2021/06/25 01:22:00;;;;;;;31.27;22.33;;;14.70;99.90;;;;;;4996969;28;20453;-77
2021/06/25 01:24:26;;;;;;;26.50;21.03;;;14.70;99.90;;;;;;4996863;28;20440;-76
2021/06/25 01:26:52;;;;;;;25.90;20.60;;;14.70;99.90;;;;;;4997129;28;20176;-78
2021/06/25 01:29:19;;;;;;;25.07;19.87;;;14.60;99.90;;;;;;4995675;28;20215;-76
2021/06/25 01:31:45;;;;;;;38.23;24.33;;;14.60;99.90;;;;;;4996942;28;20396;-77
2021/06/25 01:34:11;;;;;;;28.87;22.97;;;14.60;99.90;;;;;;4996469;28;20434;-77
2021/06/25 01:36:38;;;;;;;34.70;23.40;;;14.50;99.90;;;;;;4996801;28;20434;-78
2021/06/25 01:39:05;;;;;;;31.10;23.83;;;14.50;99.90;;;;;;4996659;28;20397;-78
2021/06/25 01:41:36;;;;;;;31.60;21.60;;;14.30;99.90;;;;;;4996636;28;20425;-76
2021/06/25 01:44:03;;;;;;;28.60;22.63;;;14.30;99.90;;;;;;4996309;28;20517;-76
2021/06/25 01:46:29;;;;;;;29.70;21.73;;;14.30;99.90;;;;;;4996471;28;20418;-78
2021/06/25 01:48:54;;;;;;;34.97;24.50;;;14.20;99.90;;;;;;4996359;28;20458;-78
2021/06/25 01:51:20;;;;;;;37.80;26.67;;;14.10;99.90;;;;;;4996337;28;20530;-79
2021/06/25 01:53:45;;;;;;;35.37;25.80;;;14.10;99.90;;;;;;4996002;28;20204;-77
2021/06/25 01:56:11;;;;;;;31.60;24.30;;;14.10;99.90;;;;;;4996479;28;20588;-76
2021/06/25 01:58:37;;;;;;;35.70;24.07;;;13.90;99.90;;;;;;4996339;28;20206;-78
2021/06/25 02:01:16;;;;;;;33.57;24.10;;;13.90;99.90;;;;;;4996230;28;20422;-76
2021/06/25 02:03:44;;;;;;;26.50;20.80;;;13.90;99.90;;;;;;4995983;28;20179;-77
2021/06/25 02:06:10;;;;;;;32.03;22.40;;;14.00;99.90;;;;;;4996115;28;20426;-76
2021/06/25 02:08:39;;;;;;;28.40;22.67;;;14.00;99.90;;;;;;4996046;28;20517;-76
2021/06/25 02:11:05;;;;;;;29.23;23.77;;;14.10;99.90;;;;;;4995943;28;20484;-77
2021/06/25 02:13:30;;;;;;;35.10;24.80;;;14.10;99.90;;;;;;4995403;28;20442;-76
2021/06/25 02:15:56;;;;;;;35.07;24.67;;;14.10;99.90;;;;;;4996034;28;20415;-77
2021/06/25 02:18:22;;;;;;;36.13;25.37;;;14.10;99.90;;;;;;4995957;28;20182;-77
2021/06/25 02:20:48;;;;;;;30.97;23.77;;;14.00;99.90;;;;;;4995953;28;20415;-77
2021/06/25 02:23:13;;;;;;;32.20;24.83;;;14.00;99.90;;;;;;4995584;28;20215;-77
2021/06/25 02:25:39;;;;;;;31.07;23.53;;;13.90;99.90;;;;;;4996061;28;20530;-77
2021/06/25 02:28:05;;;;;;;31.70;23.97;;;13.90;99.90;;;;;;4995836;28;20211;-77
2021/06/25 02:30:31;;;;;;;27.63;22.20;;;13.80;99.90;;;;;;4994343;28;20186;-77
2021/06/25 02:32:56;;;;;;;31.50;22.70;;;13.80;99.90;;;;;;4995397;28;20262;-77
2021/06/25 02:35:22;;;;;;;32.50;22.87;;;13.70;99.90;;;;;;4995598;28;20571;-78
2021/06/25 02:37:48;;;;;;;32.50;26.20;;;13.70;99.90;;;;;;4995559;28;20187;-77
2021/06/25 02:40:14;;;;;;;30.47;21.90;;;13.60;99.90;;;;;;4995715;28;20251;-76
2021/06/25 02:42:41;;;;;;;34.40;27.10;;;13.50;99.90;;;;;;4995565;28;20190;-78
2021/06/25 02:45:08;;;;;;;30.60;24.83;;;13.50;99.90;;;;;;4995346;28;20450;-76
2021/06/25 02:47:34;;;;;;;40.50;25.67;;;13.60;99.90;;;;;;4995695;28;20494;-78
2021/06/25 02:50:01;;;;;;;27.63;22.37;;;13.50;99.90;;;;;;4996130;28;20896;-76
2021/06/25 02:52:26;;;;;;;33.60;23.90;;;13.50;99.90;;;;;;4999541;28;20411;-77
2021/06/25 02:54:52;;;;;;;30.60;24.27;;;13.40;99.90;;;;;;4995365;28;20441;-77
2021/06/25 02:57:18;;;;;;;33.63;25.87;;;13.40;99.90;;;;;;4995449;28;20532;-77
2021/06/25 02:59:43;;;;;;;36.60;25.20;;;13.40;99.90;;;;;;4995190;28;20183;-77
2021/06/25 03:02:09;;;;;;;32.80;25.83;;;13.30;99.90;;;;;;4995075;28;20233;-77
2021/06/25 03:04:34;;;;;;;33.80;25.57;;;13.30;99.90;;;;;;4994694;28;20196;-78
2021/06/25 03:07:01;;;;;;;42.70;26.83;;;13.20;99.90;;;;;;4995034;28;20187;-77
2021/06/25 03:09:26;;;;;;;37.93;25.63;;;13.20;99.90;;;;;;4995071;28;20215;-78
2021/06/25 03:11:52;;;;;;;35.83;24.57;;;13.20;99.90;;;;;;4994895;28;20419;-78
2021/06/25 03:14:18;;;;;;;29.50;24.87;;;13.20;99.90;;;;;;4994554;28;20286;-77
2021/06/25 03:16:43;;;;;;;27.57;22.67;;;13.30;99.90;;;;;;4994969;28;20175;-77
2021/06/25 03:19:09;;;;;;;36.40;25.57;;;13.20;99.90;;;;;;4994976;28;20186;-77
2021/06/25 03:21:34;;;;;;;35.43;26.87;;;13.10;99.90;;;;;;4994894;28;20188;-77
2021/06/25 03:24:00;;;;;;;33.07;23.23;;;13.20;99.90;;;;;;4993641;28;20273;-78
2021/06/25 03:26:26;;;;;;;32.07;22.30;;;13.10;99.90;;;;;;4994743;28;20179;-77
2021/06/25 03:28:52;;;;;;;36.43;24.57;;;13.10;99.90;;;;;;4994525;28;20582;-77
2021/06/25 03:31:19;;;;;;;42.53;27.53;;;13.10;99.90;;;;;;4994667;28;20411;-77
2021/06/25 03:33:45;;;;;;;33.30;24.60;;;13.10;99.90;;;;;;4993238;28;20278;-76
2021/06/25 03:36:11;;;;;;;38.67;28.10;;;13.20;99.90;;;;;;4994390;28;20397;-79
2021/06/25 03:38:36;;;;;;;33.83;25.90;;;13.20;99.90;;;;;;4994671;28;20206;-77
2021/06/25 03:41:02;;;;;;;37.53;27.67;;;13.20;99.90;;;;;;4994590;28;20200;-76
2021/06/25 03:43:28;;;;;;;39.30;25.67;;;13.10;99.90;;;;;;4993902;28;20196;-78
2021/06/25 03:45:53;;;;;;;35.63;26.27;;;13.10;99.90;;;;;;4994228;28;20187;-77
2021/06/25 03:48:19;;;;;;;27.80;23.23;;;13.10;99.90;;;;;;4994107;28;20215;-77
2021/06/25 03:50:44;;;;;;;41.40;29.47;;;13.10;99.90;;;;;;4994306;28;20207;-77
2021/06/25 03:53:10;;;;;;;39.77;25.30;;;13.20;99.90;;;;;;4993818;28;20183;-79
2021/06/25 03:55:36;;;;;;;36.27;27.27;;;13.20;99.90;;;;;;4994171;28;20727;-78
2021/06/25 03:58:01;;;;;;;34.07;25.57;;;13.20;99.90;;;;;;4994146;28;20183;-77
2021/06/25 04:00:27;;;;;;;32.53;24.40;;;13.30;99.90;;;;;;4994091;28;20183;-76
2021/06/25 04:02:53;;;;;;;34.77;26.00;;;13.30;99.90;;;;;;4993716;28;20190;-77
2021/06/25 04:05:19;;;;;;;33.67;24.90;;;13.40;99.90;;;;;;4993890;28;20653;-78
2021/06/25 04:07:45;;;;;;;37.50;29.40;;;13.50;99.90;;;;;;4993902;28;20211;-76
2021/06/25 04:10:12;;;;;;;38.60;26.33;;;13.50;99.90;;;;;;4993935;28;20509;-77
2021/06/25 04:12:39;;;;;;;35.90;27.93;;;13.50;99.90;;;;;;4993905;28;20184;-77
2021/06/25 04:15:06;;;;;;;35.13;25.47;;;13.60;99.90;;;;;;4992427;28;20458;-77
2021/06/25 04:17:32;;;;;;;37.83;29.40;;;13.70;99.90;;;;;;4993881;28;20466;-77
2021/06/25 04:19:58;;;;;;;43.40;27.13;;;13.70;99.90;;;;;;4992937;28;20505;-77
2021/06/25 04:22:24;;;;;;;37.00;29.33;;;13.80;99.90;;;;;;4994103;28;20426;-77
2021/06/25 04:24:50;;;;;;;47.10;31.40;;;14.00;99.90;;;;;;4993417;28;20234;-76
2021/06/25 04:27:16;;;;;;;37.13;28.90;;;14.00;99.90;;;;;;4993934;28;20184;-78
2021/06/25 04:29:41;;;;;;;38.20;28.43;;;14.10;99.90;;;;;;4993686;28;20415;-78
2021/06/25 04:32:07;;;;;;;38.83;27.57;;;14.20;99.90;;;;;;4992909;28;20421;-76
2021/06/25 04:34:33;;;;;;;43.00;27.90;;;14.10;99.90;;;;;;4993358;28;20244;-76
2021/06/25 04:36:59;;;;;;;38.33;29.30;;;14.10;99.90;;;;;;4996581;28;20438;-78
2021/06/25 04:39:24;;;;;;;45.10;30.33;;;14.30;99.90;;;;;;4997839;28;20610;-76
2021/06/25 04:41:50;;;;;;;46.00;31.57;;;14.30;99.90;;;;;;4997821;28;20184;-77
2021/06/25 04:44:17;;;;;;;41.23;28.90;;;14.30;99.90;;;;;;4997358;28;20202;-76
2021/06/25 04:46:43;;;;;;;40.50;30.13;;;14.50;99.90;;;;;;4997714;28;20176;-78
2021/06/25 04:49:09;;;;;;;49.27;31.13;;;14.50;99.90;;;;;;4997626;28;20437;-77
2021/06/25 04:51:34;;;;;;;39.17;30.50;;;14.50;99.90;;;;;;4997609;28;20802;-78
2021/06/25 04:54:00;;;;;;;46.53;30.70;;;14.60;99.90;;;;;;4995924;28;20199;-78
2021/06/25 04:56:26;;;;;;;38.93;29.93;;;14.60;99.90;;;;;;4997292;28;20687;-77
2021/06/25 04:58:51;;;;;;;36.43;28.17;;;14.60;99.90;;;;;;4997185;28;20683;-76
2021/06/25 05:01:17;;;;;;;40.50;30.47;;;14.70;99.90;;;;;;4997100;28;20658;-78
2021/06/25 05:03:43;;;;;;;40.30;29.70;;;14.80;99.90;;;;;;4996918;28;20265;-78
2021/06/25 05:06:08;;;;;;;47.53;29.73;;;14.80;99.90;;;;;;4997292;28;20637;-78
2021/06/25 05:08:34;;;;;;;43.87;32.40;;;14.70;99.90;;;;;;4979591;28;20252;-77
2021/06/25 05:11:00;;;;;;;40.93;31.03;;;14.80;99.90;;;;;;4996920;28;20244;-75
2021/06/25 05:13:25;;;;;;;41.30;31.27;;;14.80;99.90;;;;;;4996814;28;20266;-78
2021/06/25 05:15:51;;;;;;;40.80;31.07;;;14.80;99.90;;;;;;4997411;28;20171;-76
2021/06/25 05:18:21;;;;;;;43.13;31.30;;;14.90;99.90;;;;;;4995886;28;20254;-76
2021/06/25 05:20:48;;;;;;;44.53;32.67;;;14.80;99.90;;;;;;4996964;28;20421;-76
2021/06/25 05:23:14;;;;;;;54.10;34.03;;;14.90;99.90;;;;;;4996672;28;20414;-78
2021/06/25 05:25:41;;;;;;;51.97;35.80;;;14.90;99.90;;;;;;4995601;28;20435;-76
2021/06/25 05:28:07;;;;;;;52.70;36.00;;;15.00;99.90;;;;;;4996666;28;20556;-77
2021/06/25 05:30:34;;;;;;;46.90;33.93;;;15.00;99.90;;;;;;4996928;28;20777;-78
2021/06/25 05:33:00;;;;;;;52.03;37.17;;;15.00;99.90;;;;;;4996394;28;20453;-76
2021/06/25 05:35:31;;;;;;;45.77;35.40;;;15.00;99.90;;;;;;4996895;28;20441;-79
2021/06/25 05:38:05;;;;;;;45.13;36.43;;;15.00;99.90;;;;;;4996863;28;20393;-76
2021/06/25 05:40:31;;;;;;;48.20;37.67;;;15.20;99.90;;;;;;4996983;28;20397;-78
2021/06/25 05:42:56;;;;;;;58.07;39.57;;;15.20;99.90;;;;;;4996288;28;20441;-76
2021/06/25 05:45:23;;;;;;;54.77;39.63;;;15.20;99.90;;;;;;4994438;28;20201;-76
2021/06/25 05:47:48;;;;;;;47.50;35.90;;;15.30;99.90;;;;;;4996045;28;20261;-78
2021/06/25 05:50:16;;;;;;;47.30;36.83;;;15.40;99.90;;;;;;4996491;28;20476;-78
2021/06/25 05:52:42;;;;;;;47.20;37.10;;;15.30;99.90;;;;;;4996188;28;20167;-76
2021/06/25 05:55:08;;;;;;;50.33;35.10;;;15.50;99.90;;;;;;4995965;28;20484;-78
2021/06/25 05:57:35;;;;;;;44.47;33.13;;;15.50;99.90;;;;;;4996066;28;20867;-78
2021/06/25 06:00:00;;;;;;;42.67;32.77;;;15.50;99.90;;;;;;4995817;28;20417;-76
2021/06/25 06:02:26;;;;;;;47.13;33.20;;;15.70;99.90;;;;;;4995239;28;20864;-77
2021/06/25 06:04:51;;;;;;;42.13;31.83;;;15.70;99.90;;;;;;4987355;28;20211;-77
2021/06/25 06:07:17;;;;;;;34.40;29.00;;;15.70;99.90;;;;;;4984706;28;20267;-77
2021/06/25 06:09:43;;;;;;;28.23;24.03;;;15.80;99.90;;;;;;4987053;28;20210;-76
2021/06/25 06:12:09;;;;;;;25.37;22.40;;;15.80;99.90;;;;;;4988477;28;20645;-75
2021/06/25 06:14:34;;;;;;;28.00;21.90;;;16.10;99.90;;;;;;4989659;28;20266;-77
2021/06/25 06:17:00;;;;;;;32.10;22.00;;;16.10;99.90;;;;;;4979043;28;20892;-76
2021/06/25 06:19:37;;;;;;;28.47;22.40;;;16.20;99.90;;;;;;4975016;28;20681;-75
2021/06/25 06:33:03;;;;;;;19.37;17.27;;;16.50;99.90;;;;;;4995248;28;20758;-76
2021/06/25 06:35:29;;;;;;;21.00;17.20;;;16.60;99.90;;;;;;4995407;28;20435;-75
2021/06/25 06:38:01;;;;;;;24.17;19.47;;;16.70;99.90;;;;;;4995726;28;20892;-76
2021/06/25 06:40:27;;;;;;;21.30;18.70;;;16.80;99.90;;;;;;4995387;28;20271;-75
2021/06/25 06:42:52;;;;;;;19.63;17.40;;;16.80;99.90;;;;;;4993868;28;20503;-75
2021/06/25 06:45:18;;;;;;;24.57;20.07;;;16.90;99.90;;;;;;4994220;28;20439;-76
2021/06/25 06:47:45;;;;;;;26.30;17.83;;;16.90;99.90;;;;;;4995328;28;20203;-76
2021/06/25 06:50:11;;;;;;;22.40;18.43;;;17.00;99.90;;;;;;4995464;28;20501;-75
2021/06/25 06:52:37;;;;;;;20.87;18.20;;;17.00;99.90;;;;;;4993844;28;20415;-76
2021/06/25 06:55:04;;;;;;;23.33;17.63;;;16.90;99.90;;;;;;4993801;28;20417;-77
2021/06/25 06:57:29;;;;;;;18.70;16.53;;;16.90;99.90;;;;;;4994520;28;20207;-76
2021/06/25 06:59:55;;;;;;;22.37;17.00;;;17.00;99.90;;;;;;4994900;28;20416;-76
2021/06/25 07:02:20;;;;;;;20.37;15.50;;;17.10;99.90;;;;;;4994851;28;20223;-75
2021/06/25 07:04:46;;;;;;;17.77;15.87;;;17.20;99.90;;;;;;4994487;28;20206;-76
2021/06/25 07:07:12;;;;;;;17.30;15.50;;;17.20;99.90;;;;;;4994722;28;20187;-76
2021/06/25 07:09:37;;;;;;;21.20;16.20;;;17.20;99.90;;;;;;4994757;28;20188;-76
2021/06/25 07:12:03;;;;;;;16.73;15.07;;;17.30;99.90;;;;;;4989625;28;20196;-75
2021/06/25 07:14:29;;;;;;;21.93;15.93;;;17.40;99.90;;;;;;4993563;28;20250;-76
2021/06/25 07:16:54;;;;;;;23.40;14.20;;;17.60;99.90;;;;;;4985170;28;20398;-78
2021/06/25 07:19:20;;;;;;;17.60;14.00;;;17.70;99.90;;;;;;4994036;28;20187;-76
2021/06/25 07:21:46;;;;;;;15.97;14.27;;;17.70;99.90;;;;;;4994203;28;20206;-75
2021/06/25 07:24:11;;;;;;;21.87;13.60;;;17.90;99.90;;;;;;4993892;28;20195;-76
2021/06/25 07:26:37;;;;;;;15.90;13.40;;;17.80;99.90;;;;;;4994457;28;20194;-77
2021/06/25 07:29:03;;;;;;;17.50;12.77;;;17.70;99.90;;;;;;4990454;28;20680;-76
2021/06/25 07:31:28;;;;;;;14.80;12.30;;;17.80;99.90;;;;;;4994541;28;20197;-76
2021/06/25 07:33:54;;;;;;;17.03;13.57;;;17.80;99.90;;;;;;4993771;28;20195;-77
2021/06/25 07:36:20;;;;;;;15.90;13.90;;;17.90;99.90;;;;;;4994086;28;20176;-76
2021/06/25 07:38:46;;;;;;;16.23;12.47;;;18.00;99.90;;;;;;4994517;28;20570;-76
2021/06/25 07:41:12;;;;;;;16.00;13.30;;;18.10;99.90;;;;;;4994402;28;20385;-76
2021/06/25 07:43:37;;;;;;;14.40;12.37;;;18.20;99.90;;;;;;4994126;28;20484;-75
2021/06/25 07:46:03;;;;;;;15.47;13.60;;;18.20;99.90;;;;;;4994163;28;20476;-76
2021/06/25 07:48:29;;;;;;;16.57;11.83;;;18.20;99.90;;;;;;4994431;28;20203;-75
2021/06/25 07:50:54;;;;;;;11.30;10.30;;;18.20;99.90;;;;;;4994370;28;20172;-76
2021/06/25 07:53:20;;;;;;;11.43;10.23;;;18.30;99.90;;;;;;4993786;28;20180;-76
2021/06/25 07:55:46;;;;;;;13.23;10.17;;;18.40;99.90;;;;;;4994127;28;20195;-75
2021/06/25 07:58:12;;;;;;;12.30;10.90;;;18.50;99.90;;;;;;4994017;28;20616;-76
2021/06/25 08:00:38;;;;;;;11.13;9.50;;;18.40;99.90;;;;;;4994147;28;20187;-76
2021/06/25 08:03:04;;;;;;;12.37;9.73;;;18.40;99.90;;;;;;4993781;28;20402;-76
2021/06/25 08:05:30;;;;;;;12.57;10.60;;;18.30;99.90;;;;;;4993941;28;20413;-75
2021/06/25 08:07:55;;;;;;;16.87;10.47;;;18.50;99.90;;;;;;4993804;28;20202;-77
2021/06/25 08:10:21;;;;;;;11.80;8.17;;;18.60;99.90;;;;;;4993631;28;20310;-76
2021/06/25 08:12:47;;;;;;;11.57;10.17;;;18.60;99.90;;;;;;4993553;28;20249;-76
2021/06/25 08:15:12;;;;;;;16.70;10.47;;;18.70;99.90;;;;;;4993770;28;20639;-75
2021/06/25 08:17:38;;;;;;;12.77;8.83;;;19.00;99.90;;;;;;4993864;28;20647;-75
2021/06/25 08:20:05;;;;;;;9.30;8.20;;;19.00;99.90;;;;;;4993801;28;20469;-75
2021/06/25 08:22:31;;;;;;;12.60;8.50;;;19.00;99.90;;;;;;4993732;28;20184;-77
2021/06/25 08:24:57;;;;;;;11.80;8.37;;;19.20;99.90;;;;;;4993465;28;20420;-75
2021/06/25 08:27:23;;;;;;;9.53;8.43;;;19.30;99.90;;;;;;4993609;28;20186;-76
2021/06/25 08:29:48;;;;;;;10.90;8.70;;;19.50;99.90;;;;;;4993989;28;20403;-75
2021/06/25 08:32:14;;;;;;;10.20;9.13;;;19.90;99.90;;;;;;4993897;28;20184;-76
2021/06/25 08:34:40;;;;;;;11.67;9.10;;;20.10;99.90;;;;;;4993374;28;20559;-75
2021/06/25 08:37:06;;;;;;;14.30;9.90;;;19.70;99.90;;;;;;4993822;28;20222;-75
2021/06/25 08:39:32;;;;;;;11.43;10.27;;;19.70;99.90;;;;;;4993805;28;20535;-76
2021/06/25 08:42:02;;;;;;;9.77;8.77;;;19.50;99.90;;;;;;4993647;28;20411;-76
2021/06/25 08:44:30;;;;;;;9.53;8.30;;;19.90;99.90;;;;;;4993268;28;20496;-75
2021/06/25 08:46:56;;;;;;;12.07;7.40;;;19.80;99.90;;;;;;4993589;28;20430;-75
2021/06/25 08:49:26;;;;;;;10.37;7.50;;;20.00;99.90;;;;;;4993580;28;20467;-75
2021/06/25 08:51:52;;;;;;;10.23;9.10;;;20.50;99.90;;;;;;4993578;28;20557;-75
2021/06/25 08:54:17;;;;;;;14.07;9.30;;;20.60;99.90;;;;;;4993107;28;20437;-78
2021/06/25 08:56:43;;;;;;;10.50;8.43;;;20.50;99.90;;;;;;4993498;28;20183;-77
2021/06/25 08:59:09;;;;;;;8.27;7.43;;;20.60;99.90;;;;;;4993594;28;20190;-76
2021/06/25 09:01:36;;;;;;;11.43;8.70;;;21.10;99.90;;;;;;4993544;28;20180;-77
2021/06/25 09:04:04;;;;;;;10.67;9.60;;;21.00;99.90;;;;;;4993117;28;20199;-76
2021/06/25 09:06:32;;;;;;;13.20;8.53;;;21.20;99.90;;;;;;4993573;28;20757;-77
2021/06/25 09:09:11;;;;;;;10.27;9.10;;;20.90;99.90;;;;;;4993127;28;20470;-76
2021/06/25 09:11:40;;;;;;;10.10;9.07;;;21.30;99.90;;;;;;4993305;28;20430;-77
2021/06/25 09:14:06;;;;;;;11.00;8.80;;;21.50;99.90;;;;;;4993061;28;20517;-76
2021/06/25 09:16:34;;;;;;;9.77;8.57;;;21.60;99.90;;;;;;4993191;28;20419;-78
2021/06/25 09:19:08;;;;;;;10.33;9.33;;;21.80;99.90;;;;;;4993184;28;20417;-76
2021/06/25 09:21:43;;;;;;;11.67;9.23;;;21.00;99.90;;;;;;4994677;28;20501;-76
2021/06/25 09:24:35;;;;;;;11.10;9.67;;;20.90;99.90;;;;;;4996613;28;20433;-76
2021/06/25 09:27:06;;;;;;;10.33;8.50;;;20.90;99.90;;;;;;4996728;28;20496;-76
2021/06/25 09:29:37;;;;;;;9.83;8.93;;;21.10;99.90;;;;;;4996841;28;20935;-78
2021/06/25 09:32:09;;;;;;;10.40;8.80;;;20.80;99.90;;;;;;4995868;28;20480;-76
2021/06/25 09:34:35;;;;;;;10.93;9.00;;;20.90;99.90;;;;;;4996590;28;20442;-74
2021/06/25 09:37:02;;;;;;;11.07;8.37;;;20.90;99.90;;;;;;4996526;28;20410;-76
2021/06/25 09:39:28;;;;;;;10.07;9.17;;;20.90;99.90;;;;;;4996608;28;20419;-77
2021/06/25 09:41:53;;;;;;;15.30;9.57;;;21.30;99.90;;;;;;4996502;28;20414;-76
2021/06/25 09:44:20;;;;;;;10.93;9.93;;;21.70;99.90;;;;;;4996373;28;20691;-76
2021/06/25 09:46:50;;;;;;;10.47;9.47;;;21.60;99.90;;;;;;4996751;28;20184;-76
2021/06/25 09:49:25;;;;;;;8.50;7.67;;;21.70;99.90;;;;;;4996641;28;20433;-75
2021/06/25 09:51:59;;;;;;;11.60;10.40;;;21.30;99.90;;;;;;4995356;28;20426;-76
2021/06/25 09:54:27;;;;;;;12.30;9.57;;;21.60;99.90;;;;;;4996046;28;20441;-76
2021/06/25 09:57:15;;;;;;;12.10;8.90;;;22.40;99.90;;;;;;4996230;28;20479;-77
2021/06/25 10:02:21;;;;;;;11.17;9.90;;;22.70;99.90;;;;;;4996412;28;20422;-76
2021/06/25 10:04:54;;;;;;;13.93;9.80;;;22.70;99.90;;;;;;4995607;28;21021;-76
2021/06/25 10:07:26;;;;;;;10.57;9.47;;;22.70;99.90;;;;;;4996021;28;20442;-77
2021/06/25 10:09:53;;;;;;;12.10;8.93;;;22.60;99.90;;;;;;4996151;28;20470;-75
2021/06/25 10:12:21;;;;;;;9.63;8.67;;;22.20;99.90;;;;;;4996031;28;20422;-75
2021/06/25 10:14:47;;;;;;;11.70;9.67;;;22.30;99.90;;;;;;4995548;28;20454;-75
2021/06/25 10:17:14;;;;;;;13.47;9.80;;;22.40;99.90;;;;;;4995729;28;20411;-76
2021/06/25 10:19:50;;;;;;;10.90;9.77;;;22.60;99.90;;;;;;4996022;28;20800;-75
2021/06/25 10:22:17;;;;;;;11.20;9.60;;;22.40;99.90;;;;;;4995990;28;20414;-77
2021/06/25 10:24:48;;;;;;;11.63;9.97;;;22.40;99.90;;;;;;4995471;28;21018;-75
2021/06/25 10:27:16;;;;;;;9.30;8.50;;;22.60;99.90;;;;;;4995739;28;20450;-75
2021/06/25 10:29:41;;;;;;;10.53;9.53;;;22.90;99.90;;;;;;4995483;28;20473;-76
2021/06/25 10:32:09;;;;;;;10.27;9.27;;;22.90;99.90;;;;;;4995711;28;20418;-76
2021/06/25 10:34:40;;;;;;;10.30;9.27;;;22.50;99.90;;;;;;4995517;28;20207;-76
2021/06/25 10:37:08;;;;;;;10.53;9.53;;;22.70;99.90;;;;;;4995815;28;20541;-75
2021/06/25 10:39:35;;;;;;;10.90;9.80;;;22.90;99.90;;;;;;4995612;28;20419;-75
2021/06/25 10:42:04;;;;;;;10.37;9.47;;;23.40;99.90;;;;;;4995668;28;20429;-76
2021/06/25 10:44:35;;;;;;;10.23;9.23;;;23.10;99.90;;;;;;4995220;28;20434;-76
2021/06/25 10:47:31;;;;;;;10.07;8.60;;;23.50;99.90;;;;;;4995386;28;20780;-76
2021/06/25 10:50:00;;;;;;;9.10;8.00;;;23.70;99.90;;;;;;4995350;28;20422;-74
2021/06/25 10:52:29;;;;;;;10.30;9.30;;;24.40;99.90;;;;;;4995216;28;20399;-74
2021/06/25 10:55:06;;;;;;;11.10;10.03;;;24.00;99.90;;;;;;4994874;28;21225;-76
2021/06/25 10:57:54;;;;;;;9.73;8.73;;;23.90;99.90;;;;;;4993906;28;20407;-76
2021/06/25 11:00:38;;;;;;;10.40;9.40;;;24.90;99.90;;;;;;4995458;28;20413;-75
2021/06/25 11:03:03;;;;;;;12.63;8.60;;;25.00;99.90;;;;;;4994743;28;20469;-76
2021/06/25 11:05:34;;;;;;;11.33;10.23;;;24.50;99.90;;;;;;4994635;28;20431;-74
2021/06/25 11:08:18;;;;;;;12.83;9.53;;;24.00;99.90;;;;;;4995016;28;20203;-74
2021/06/25 11:10:53;;;;;;;10.57;9.57;;;23.90;99.90;;;;;;4995002;28;20431;-74
2021/06/25 11:13:21;;;;;;;12.60;11.27;;;24.20;99.90;;;;;;4994307;28;20425;-75
2021/06/25 11:15:53;;;;;;;27.03;11.00;;;23.70;99.90;;;;;;4994614;28;20429;-75
2021/06/25 11:18:28;;;;;;;10.63;9.50;;;23.70;99.90;;;;;;4994932;28;20780;-76
2021/06/25 11:20:55;;;;;;;12.33;11.13;;;23.90;99.90;;;;;;4994735;28;20441;-75
2021/06/25 11:23:26;;;;;;;13.00;9.70;;;24.20;99.90;;;;;;4994330;28;20415;-75
2021/06/25 11:25:58;;;;;;;11.10;9.57;;;24.30;99.90;;;;;;4994519;28;20451;-76
2021/06/25 11:28:40;;;;;;;12.30;10.70;;;24.30;99.90;;;;;;4994807;28;20501;-75
2021/06/25 11:31:16;;;;;;;12.67;11.37;;;23.80;99.90;;;;;;4994733;28;20812;-75
2021/06/25 11:36:52;;;;;;;12.27;10.00;;;24.70;99.90;;;;;;4994601;28;20410;-75
2021/06/25 11:39:20;;;;;;;12.40;11.10;;;25.40;99.90;;;;;;4994505;28;20943;-76
2021/06/25 11:42:17;;;;;;;13.63;10.70;;;25.10;99.90;;;;;;4994183;28;20417;-75
2021/06/25 11:44:49;;;;;;;15.30;9.53;;;25.40;99.90;;;;;;4993547;28;20465;-74
2021/06/25 11:47:18;;;;;;;12.40;11.23;;;25.70;99.90;;;;;;4994446;28;20916;-75
2021/06/25 11:52:27;;;;;;;12.20;11.07;;;26.00;99.90;;;;;;4994525;28;20456;-74
2021/06/25 11:54:54;;;;;;;11.70;10.27;;;25.50;99.90;;;;;;4993870;28;20510;-74
2021/06/25 11:57:30;;;;;;;10.70;9.50;;;25.70;99.90;;;;;;4994271;28;20415;-74
2021/06/25 12:00:11;;;;;;;10.60;9.50;;;25.50;99.90;;;;;;4994280;28;20831;-73
2021/06/25 12:02:55;;;;;;;13.47;9.97;;;25.40;99.90;;;;;;4993984;28;20411;-75
2021/06/25 12:05:45;;;;;;;10.77;9.73;;;26.20;99.90;;;;;;4993837;28;20841;-75
2021/06/25 12:08:16;;;;;;;14.47;9.60;;;25.60;99.90;;;;;;4994117;28;20501;-74
2021/06/25 12:10:59;;;;;;;10.87;9.50;;;26.30;99.90;;;;;;4994002;28;20813;-76
2021/06/25 12:13:26;;;;;;;9.37;8.57;;;27.30;99.90;;;;;;4993475;28;20430;-76
2021/06/25 12:15:53;;;;;;;13.83;10.83;;;28.00;99.90;;;;;;4993658;28;20433;-75
2021/06/25 12:18:20;;;;;;;11.40;10.27;;;26.60;99.90;;;;;;4993849;28;20474;-74
2021/06/25 12:20:46;;;;;;;11.00;9.70;;;26.00;99.90;;;;;;4994178;28;20422;-75
2021/06/25 12:23:12;;;;;;;10.40;9.37;;;25.70;99.90;;;;;;4993561;28;20422;-74
2021/06/25 12:25:38;;;;;;;10.73;9.73;;;25.90;99.90;;;;;;4993739;28;20214;-76
2021/06/25 12:28:10;;;;;;;9.23;8.33;;;25.60;99.90;;;;;;4993632;28;20466;-75
2021/06/25 12:30:39;;;;;;;9.67;8.67;;;25.90;99.90;;;;;;4993774;28;20417;-75
2021/06/25 12:33:08;;;;;;;12.17;9.90;;;25.60;99.90;;;;;;4993514;28;20411;-75
2021/06/25 12:35:39;;;;;;;8.90;8.10;;;25.10;99.90;;;;;;4993657;28;20441;-76
2021/06/25 12:38:08;;;;;;;9.17;8.30;;;25.40;99.90;;;;;;4993438;28;21018;-75
2021/06/25 12:40:45;;;;;;;10.13;8.93;;;25.00;99.90;;;;;;4993597;28;20411;-74
2021/06/25 12:43:18;;;;;;;13.70;10.23;;;25.10;99.90;;;;;;4993416;28;20409;-74
2021/06/25 12:45:50;;;;;;;10.50;9.50;;;25.30;99.90;;;;;;4993828;28;20427;-75
2021/06/25 12:48:23;;;;;;;11.03;9.23;;;25.50;99.90;;;;;;4993654;28;20454;-74
2021/06/25 12:50:53;;;;;;;10.20;8.50;;;25.70;99.90;;;;;;4993792;28;20501;-75
2021/06/25 12:53:28;;;;;;;8.83;7.90;;;26.60;99.90;;;;;;4993347;28;20423;-74